Time;durP1;ratioP1;P1;durP2;ratioP2;P2;SDS_P1;SDS_P2;PMS_P1;PMS_P2;Temp;Humidity;BMP_temperature;BMP_pressure;BME280_temperature;BME280_humidity;BME280_pressure;Samples;Min_cycle;Max_cycle;Signal;HPM_P1;HPM_P2
2023/08/29 00:01:37;;;;;;;12.70;3.45;;;;;;;19.88;73.98;92418.75;5012848;28;20050;-77
2023/08/29 00:04:04;;;;;;;6.13;3.10;;;;;;;19.70;74.81;92405.50;5013970;28;20136;-77
2023/08/29 00:06:31;;;;;;;4.10;3.00;;;;;;;19.75;74.60;92407.22;5015134;28;20077;-76
2023/08/29 00:08:58;;;;;;;4.65;3.00;;;;;;;19.82;75.26;92410.25;5018900;28;20046;-76
2023/08/29 00:11:26;;;;;;;5.28;3.03;;;;;;;19.85;75.02;92403.69;5018418;28;20107;-76
2023/08/29 00:13:53;;;;;;;5.82;3.05;;;;;;;19.79;75.35;92400.41;5013827;28;20104;-76
2023/08/29 00:16:20;;;;;;;4.90;2.72;;;;;;;19.77;75.20;92403.28;5012037;28;20049;-76
2023/08/29 00:18:47;;;;;;;4.88;3.38;;;;;;;19.69;75.43;92403.97;5020027;28;20112;-76
2023/08/29 00:21:13;;;;;;;6.07;2.92;;;;;;;19.70;74.33;92402.09;5016371;28;20511;-76
2023/08/29 00:23:40;;;;;;;4.00;2.70;;;;;;;19.75;74.77;92396.81;5013181;28;20049;-76
2023/08/29 00:26:07;;;;;;;5.03;2.80;;;;;;;19.63;74.60;92374.59;5014873;28;20049;-76
2023/08/29 00:28:35;;;;;;;4.72;2.80;;;;;;;19.79;73.78;92378.78;5008795;28;20092;-76
2023/08/29 00:31:02;;;;;;;4.32;2.60;;;;;;;19.85;74.30;92395.84;5017913;28;20050;-76
2023/08/29 00:33:28;;;;;;;3.92;2.90;;;;;;;19.77;74.53;92392.09;5019517;28;20434;-77
2023/08/29 00:35:55;;;;;;;4.60;3.17;;;;;;;19.71;75.22;92403.66;5011549;28;20089;-76
2023/08/29 00:38:22;;;;;;;3.95;3.00;;;;;;;19.60;75.62;92388.22;5012367;28;20049;-76
2023/08/29 00:40:48;;;;;;;4.45;2.90;;;;;;;19.62;75.83;92404.31;5019678;28;20503;-76
2023/08/29 00:43:15;;;;;;;3.28;2.67;;;;;;;19.58;76.28;92395.53;5020604;28;20042;-76
2023/08/29 00:45:43;;;;;;;6.05;3.17;;;;;;;19.51;76.33;92382.09;5016206;28;20046;-76
2023/08/29 00:48:11;;;;;;;5.57;3.30;;;;;;;19.30;77.52;92381.66;5015841;28;20045;-76
2023/08/29 00:50:39;;;;;;;5.13;3.40;;;;;;;19.27;77.74;92382.22;5022322;28;20136;-76
2023/08/29 00:53:07;;;;;;;6.97;3.67;;;;;;;19.16;79.21;92389.41;5012315;28;20049;-76
2023/08/29 00:55:35;;;;;;;6.55;3.92;;;;;;;19.04;79.21;92385.41;5016512;28;20045;-76
2023/08/29 00:58:03;;;;;;;4.32;3.20;;;;;;;19.14;78.87;92386.31;5012442;28;20054;-76
2023/08/29 01:00:30;;;;;;;5.90;3.40;;;;;;;19.21;78.92;92379.69;5009324;28;20056;-76
2023/08/29 01:02:59;;;;;;;8.55;3.60;;;;;;;19.21;79.17;92381.53;5009995;28;20495;-76
2023/08/29 01:05:28;;;;;;;5.15;3.10;;;;;;;19.22;78.72;92372.66;5012583;28;20396;-76
2023/08/29 01:07:58;;;;;;;4.55;3.30;;;;;;;18.89;79.36;92349.19;5010954;28;20050;-76
2023/08/29 01:10:32;;;;;;;4.82;3.20;;;;;;;19.12;78.95;92365.00;5021692;28;20137;-76
2023/08/29 01:13:09;;;;;;;4.70;3.65;;;;;;;19.14;78.25;92363.66;5016916;28;20504;-76
2023/08/29 01:15:36;;;;;;;4.82;3.25;;;;;;;19.21;78.83;92353.66;5009401;28;20112;-76
2023/08/29 01:18:06;;;;;;;3.92;3.03;;;;;;;19.29;78.14;92351.44;5012153;28;20574;-76
2023/08/29 01:20:35;;;;;;;4.88;3.30;;;;;;;19.33;77.72;92353.22;5011706;28;20100;-76
2023/08/29 01:23:09;;;;;;;4.68;3.13;;;;;;;19.35;77.72;92353.69;5012488;28;20057;-76
2023/08/29 01:25:43;;;;;;;4.53;3.40;;;;;;;19.29;77.62;92348.84;5011095;28;20112;-76
2023/08/29 01:28:12;;;;;;;4.97;3.42;;;;;;;19.25;77.40;92347.88;5009840;28;20046;-76
2023/08/29 01:30:42;;;;;;;3.30;2.80;;;;;;;19.31;77.54;92344.91;5011599;28;20784;-76
2023/08/29 01:33:09;;;;;;;5.50;3.40;;;;;;;19.26;78.23;92336.41;5011830;28;20042;-76
2023/08/29 01:35:35;;;;;;;4.22;3.42;;;;;;;19.18;78.61;92336.03;5008143;28;20503;-76
2023/08/29 01:38:02;;;;;;;4.60;3.13;;;;;;;19.16;78.56;92335.50;5015021;28;20049;-76
2023/08/29 01:40:29;;;;;;;5.10;3.42;;;;;;;19.17;79.07;92336.28;5009840;28;20058;-76
2023/08/29 01:42:55;;;;;;;6.25;3.63;;;;;;;19.02;79.29;92330.22;5012919;28;20461;-76
2023/08/29 01:45:23;;;;;;;4.93;3.65;;;;;;;19.11;79.26;92340.78;5020372;28;20049;-76
2023/08/29 01:47:50;;;;;;;4.55;3.58;;;;;;;19.09;79.92;92338.50;5011181;28;20096;-80
2023/08/29 01:50:19;;;;;;;6.07;3.40;;;;;;;19.06;80.25;92346.84;5008473;28;20641;-76
2023/08/29 01:52:46;;;;;;;5.80;3.65;;;;;;;18.99;79.86;92332.63;5009716;28;20045;-76
2023/08/29 01:55:12;;;;;;;5.82;3.30;;;;;;;18.99;79.89;92332.63;5016714;28;20046;-76
2023/08/29 01:57:40;;;;;;;6.50;3.47;;;;;;;18.99;80.37;92337.84;5015884;28;20077;-76
2023/08/29 02:00:08;;;;;;;5.35;3.72;;;;;;;19.05;79.50;92341.94;5012440;28;20163;-76
2023/08/29 02:02:36;;;;;;;5.25;3.90;;;;;;;19.06;79.77;92344.25;5017147;28;20050;-76
2023/08/29 02:05:04;;;;;;;4.40;3.55;;;;;;;19.07;80.10;92343.19;5008620;28;20270;-77
2023/08/29 02:07:30;;;;;;;5.13;3.38;;;;;;;19.07;80.08;92343.19;5007917;28;20052;-77
2023/08/29 02:09:57;;;;;;;6.60;4.10;;;;;;;19.01;80.77;92339.09;5007452;28;20046;-77
2023/08/29 02:12:24;;;;;;;5.75;3.88;;;;;;;19.03;80.67;92346.63;5007496;28;20054;-77
2023/08/29 02:14:50;;;;;;;4.45;3.60;;;;;;;19.00;80.74;92342.75;5010346;28;20054;-77
2023/08/29 02:17:17;;;;;;;4.97;3.60;;;;;;;18.96;80.78;92339.97;5008084;28;20134;-77
2023/08/29 02:19:45;;;;;;;8.05;3.75;;;;;;;18.95;81.17;92338.41;5007266;28;20050;-77
2023/08/29 02:22:12;;;;;;;4.20;3.55;;;;;;;18.91;81.16;92334.03;5008109;28;20503;-77
2023/08/29 02:24:39;;;;;;;7.50;3.40;;;;;;;18.80;81.31;92317.81;5012472;28;20530;-77
2023/08/29 02:27:06;;;;;;;5.43;3.70;;;;;;;18.91;82.03;92336.66;5009358;28;20049;-76
2023/08/29 02:29:33;;;;;;;6.03;3.38;;;;;;;18.81;81.59;92324.56;5007283;28;20508;-76
2023/08/29 02:31:59;;;;;;;5.25;3.80;;;;;;;18.90;82.12;92340.31;5015901;28;20049;-77
2023/08/29 02:34:26;;;;;;;4.68;3.65;;;;;;;18.88;82.20;92343.19;5012989;28;20050;-77
2023/08/29 02:36:55;;;;;;;4.53;3.67;;;;;;;18.69;82.28;92323.16;5006732;28;20045;-76
2023/08/29 02:39:21;;;;;;;4.38;3.60;;;;;;;18.82;82.68;92347.69;5014724;28;20119;-77
2023/08/29 02:41:48;;;;;;;5.65;3.85;;;;;;;18.78;83.36;92346.72;5009108;28;20428;-75
2023/08/29 02:44:15;;;;;;;5.15;3.88;;;;;;;18.77;82.93;92344.38;5014681;28;20125;-75
2023/08/29 02:46:42;;;;;;;5.13;3.50;;;;;;;18.78;82.95;92351.91;5009253;28;20054;-76
2023/08/29 02:49:08;;;;;;;5.13;4.15;;;;;;;18.81;82.87;92358.38;5007083;28;20045;-74
2023/08/29 02:51:35;;;;;;;7.00;3.80;;;;;;;18.79;82.74;92363.88;5008966;28;20057;-74
2023/08/29 02:54:04;;;;;;;7.90;4.18;;;;;;;18.76;83.17;92361.84;5010438;28;20092;-74
2023/08/29 02:56:30;;;;;;;6.57;4.20;;;;;;;18.67;83.59;92363.50;5012445;28;20050;-75
2023/08/29 02:58:57;;;;;;;6.00;4.20;;;;;;;18.65;84.13;92360.44;5014134;28;20100;-75
2023/08/29 03:01:24;;;;;;;7.45;4.45;;;;;;;18.51;86.00;92365.56;5015715;28;20116;-75
2023/08/29 03:03:51;;;;;;;5.60;4.32;;;;;;;18.51;84.99;92357.75;5009978;28;20080;-75
2023/08/29 03:06:17;;;;;;;4.85;3.63;;;;;;;18.54;85.41;92364.97;5023927;28;20050;-75
2023/08/29 03:08:44;;;;;;;4.90;3.90;;;;;;;18.50;85.53;92354.38;5010283;28;20092;-75
2023/08/29 03:11:12;;;;;;;7.25;4.25;;;;;;;18.46;85.77;92350.00;5010507;28;20046;-75
2023/08/29 03:13:39;;;;;;;6.40;4.10;;;;;;;18.36;87.18;92338.69;5010303;28;20054;-76
2023/08/29 03:16:12;;;;;;;5.97;4.90;;;;;;;18.11;88.83;92344.97;5011140;28;20045;-74
2023/08/29 03:18:39;;;;;;;5.15;4.35;;;;;;;18.04;89.20;92342.66;5011410;28;20054;-75
2023/08/29 03:21:07;;;;;;;5.32;4.20;;;;;;;18.11;88.13;92331.97;5019281;28;20108;-74
2023/08/29 03:23:34;;;;;;;12.45;4.38;;;;;;;17.91;87.70;92297.31;5011140;28;20038;-74
2023/08/29 03:26:06;;;;;;;7.88;4.72;;;;;;;18.24;88.11;92338.31;5023009;28;20137;-74
2023/08/29 03:28:35;;;;;;;6.40;4.80;;;;;;;18.27;88.22;92343.72;5020599;28;20042;-74
2023/08/29 03:31:10;;;;;;;7.63;4.85;;;;;;;18.26;88.99;92336.19;5018496;28;20057;-74
2023/08/29 03:33:37;;;;;;;7.95;4.43;;;;;;;18.24;88.33;92339.06;5013202;28;20053;-74
2023/08/29 03:36:04;;;;;;;5.88;4.40;;;;;;;18.31;87.74;92338.75;5011308;28;20455;-74
2023/08/29 03:38:31;;;;;;;10.57;5.05;;;;;;;18.38;87.18;92335.81;5009665;28;20053;-74
2023/08/29 03:40:58;;;;;;;8.75;5.07;;;;;;;18.38;86.23;92328.00;5011837;28;20491;-74
2023/08/29 03:43:27;;;;;;;6.03;4.47;;;;;;;18.35;87.51;92311.13;5015901;28;20038;-74
2023/08/29 03:45:59;;;;;;;8.90;4.90;;;;;;;18.31;87.85;92299.75;5011351;28;20491;-75
2023/08/29 03:48:26;;;;;;;8.93;5.07;;;;;;;18.36;87.42;92310.09;5009152;28;20104;-74
2023/08/29 03:50:53;;;;;;;5.35;4.32;;;;;;;18.28;87.73;92324.47;5011255;28;20045;-74
2023/08/29 03:53:19;;;;;;;9.25;5.63;;;;;;;18.29;88.40;92323.41;5013509;28;20849;-74
2023/08/29 03:55:46;;;;;;;6.18;4.35;;;;;;;18.26;88.52;92312.81;5009687;28;20072;-74
2023/08/29 03:58:13;;;;;;;5.95;4.60;;;;;;;18.27;89.41;92304.72;5014616;28;20132;-74
2023/08/29 04:00:41;;;;;;;5.90;4.45;;;;;;;18.32;88.41;92308.31;5009519;28;20085;-74
2023/08/29 04:03:09;;;;;;;8.07;5.65;;;;;;;18.18;87.96;92285.59;5009498;28;20045;-74
2023/08/29 04:05:36;;;;;;;10.48;5.47;;;;;;;18.25;87.87;92286.06;5012690;28;20042;-74
2023/08/29 04:08:04;;;;;;;6.95;5.28;;;;;;;18.44;88.40;92306.09;5011550;28;20061;-74
2023/08/29 04:10:37;;;;;;;7.28;4.90;;;;;;;18.48;88.09;92319.28;5015724;28;20054;-74
2023/08/29 04:13:04;;;;;;;9.70;4.75;;;;;;;18.47;88.56;92315.16;5013090;28;20107;-74
2023/08/29 04:15:30;;;;;;;8.77;5.13;;;;;;;18.54;87.86;92320.75;5011747;28;20151;-74
2023/08/29 04:17:57;;;;;;;13.43;5.13;;;;;;;18.53;89.81;92319.22;5011824;28;20104;-74
2023/08/29 04:20:25;;;;;;;7.93;4.90;;;;;;;18.60;87.33;92326.69;5009620;28;20551;-74
2023/08/29 04:22:52;;;;;;;14.70;6.00;;;;;;;18.63;89.15;92326.09;5012159;28;20677;-74
2023/08/29 04:25:19;;;;;;;8.25;5.35;;;;;;;18.64;87.27;92325.84;5012880;28;20045;-74
2023/08/29 04:27:46;;;;;;;10.45;4.80;;;;;;;18.69;87.63;92324.97;5014710;28;20128;-74
2023/08/29 04:30:13;;;;;;;7.07;4.30;;;;;;;18.72;88.17;92321.03;5013824;28;20898;-74
2023/08/29 04:32:40;;;;;;;7.75;4.50;;;;;;;18.72;88.83;92321.81;5018868;28;20041;-74
2023/08/29 04:35:08;;;;;;;9.88;4.50;;;;;;;18.75;88.03;92326.44;5009291;28;20050;-74
2023/08/29 04:37:36;;;;;;;10.20;5.30;;;;;;;18.82;87.85;92326.88;5017275;28;20495;-73
2023/08/29 04:40:06;;;;;;;8.43;4.88;;;;;;;18.94;87.44;92331.63;5012185;28;20046;-74
2023/08/29 04:42:33;;;;;;;6.95;4.43;;;;;;;19.01;87.44;92330.50;5009169;28;20041;-74
2023/08/29 04:45:02;;;;;;;8.65;5.15;;;;;;;19.02;87.78;92325.03;5014779;28;20076;-75
2023/08/29 04:47:28;;;;;;;8.13;4.80;;;;;;;19.11;87.07;92324.41;5011373;28;20050;-74
2023/08/29 04:49:55;;;;;;;10.93;5.50;;;;;;;19.17;88.34;92315.47;5012696;28;20503;-74
2023/08/29 04:52:22;;;;;;;10.27;4.68;;;;;;;19.26;86.94;92311.16;5009403;28;20112;-74
2023/08/29 04:54:50;;;;;;;8.05;4.93;;;;;;;19.38;86.12;92312.53;5013069;28;20107;-74
2023/08/29 04:57:17;;;;;;;13.95;5.57;;;;;;;19.47;86.54;92306.38;5019733;28;20049;-74
2023/08/29 04:59:43;;;;;;;12.35;5.45;;;;;;;19.54;87.34;92302.63;5014962;28;20050;-74
2023/08/29 05:02:10;;;;;;;8.85;4.75;;;;;;;19.64;85.96;92307.66;5011169;28;20104;-74
2023/08/29 05:04:37;;;;;;;13.98;4.60;;;;;;;19.75;86.20;92301.19;5007494;28;20088;-74
2023/08/29 05:07:05;;;;;;;11.23;5.35;;;;;;;19.74;88.62;92285.84;5011933;28;20123;-74
2023/08/29 05:09:31;;;;;;;7.78;4.03;;;;;;;19.92;85.23;92281.59;5014288;28;20046;-74
2023/08/29 05:11:59;;;;;;;10.63;4.85;;;;;;;20.10;84.56;92294.84;5008818;28;20053;-74
2023/08/29 05:14:26;;;;;;;17.73;6.15;;;;;;;20.20;85.30;92289.41;5015141;28;20093;-74
2023/08/29 05:16:53;;;;;;;7.85;5.82;;;;;;;20.28;84.93;92290.56;5012571;28;20585;-74
2023/08/29 05:19:20;;;;;;;14.85;5.35;;;;;;;20.41;84.37;92286.41;5015073;28;20050;-74
2023/08/29 05:21:47;;;;;;;17.40;6.05;;;;;;;20.47;83.05;92280.00;5008162;28;20100;-74
2023/08/29 05:24:13;;;;;;;11.18;5.38;;;;;;;20.58;83.01;92287.59;5017976;28;20137;-74
2023/08/29 05:26:40;;;;;;;7.78;4.57;;;;;;;20.68;83.81;92282.94;5008504;28;20041;-74
2023/08/29 05:29:08;;;;;;;12.25;5.53;;;;;;;20.79;84.61;92288.66;5008082;28;20136;-74
2023/08/29 05:31:35;;;;;;;9.43;5.10;;;;;;;20.92;83.71;92284.50;5011089;28;20100;-74
2023/08/29 05:34:01;;;;;;;13.55;5.50;;;;;;;21.06;82.57;92287.03;5009476;28;20050;-74
2023/08/29 05:36:28;;;;;;;10.25;4.70;;;;;;;21.07;83.21;92269.56;5010258;28;20049;-74
2023/08/29 05:38:55;;;;;;;11.00;5.18;;;;;;;21.32;82.05;92296.09;5011048;28;20080;-74
2023/08/29 05:41:22;;;;;;;12.23;6.05;;;;;;;21.41;83.41;92281.25;5014744;28;20455;-74
2023/08/29 05:43:49;;;;;;;10.05;5.13;;;;;;;21.51;80.93;92280.22;5013486;28;20058;-74
2023/08/29 05:46:17;;;;;;;12.15;5.38;;;;;;;21.63;81.29;92284.88;5007613;28;20209;-74
2023/08/29 05:48:44;;;;;;;12.65;4.95;;;;;;;21.75;80.11;92279.09;5008912;28;20057;-75
2023/08/29 05:51:10;;;;;;;13.75;5.13;;;;;;;21.88;79.55;92285.31;5013110;28;20526;-74
2023/08/29 05:53:37;;;;;;;12.32;5.75;;;;;;;22.02;78.44;92287.81;5011293;28;20054;-74
2023/08/29 05:56:04;;;;;;;20.15;6.50;;;;;;;22.18;77.98;92292.63;5014628;28;20057;-74
2023/08/29 05:58:31;;;;;;;13.85;5.88;;;;;;;22.38;77.04;92296.50;5010671;28;20045;-74
2023/08/29 06:00:58;;;;;;;12.48;5.72;;;;;;;22.58;76.41;92294.41;5008281;28;20046;-74
2023/08/29 06:03:26;;;;;;;8.55;4.22;;;;;;;22.79;74.81;92291.94;5007445;28;20045;-74
2023/08/29 06:05:52;;;;;;;8.70;4.70;;;;;;;22.98;74.35;92294.22;5011506;28;20087;-75
2023/08/29 06:08:19;;;;;;;5.95;3.90;;;;;;;23.16;73.09;92287.13;5017987;28;20053;-75
2023/08/29 06:10:46;;;;;;;8.52;4.15;;;;;;;23.31;71.22;92283.25;5016497;28;20038;-74
2023/08/29 06:13:13;;;;;;;5.50;3.20;;;;;;;23.40;70.74;92283.25;5012093;28;20045;-74
2023/08/29 06:15:39;;;;;;;5.07;3.72;;;;;;;23.48;70.22;92289.53;5008503;28;20438;-74
2023/08/29 06:18:06;;;;;;;5.88;3.55;;;;;;;23.54;69.60;92288.28;5007784;28;20054;-75
2023/08/29 06:20:35;;;;;;;7.00;3.50;;;;;;;23.64;68.95;92296.91;5008966;28;20100;-74
2023/08/29 06:23:03;;;;;;;6.53;4.00;;;;;;;23.74;68.52;92288.66;5008554;28;20049;-74
2023/08/29 06:25:29;;;;;;;5.13;3.80;;;;;;;23.88;69.65;92291.06;5007380;28;20418;-74
2023/08/29 06:27:56;;;;;;;5.55;3.22;;;;;;;24.06;68.17;92285.78;5013028;28;20056;-73
2023/08/29 06:30:23;;;;;;;11.57;3.63;;;;;;;24.32;68.54;92287.50;5014781;28;20128;-74
2023/08/29 06:32:50;;;;;;;8.00;4.10;;;;;;;24.53;67.78;92287.53;5016544;28;20652;-74
2023/08/29 06:35:17;;;;;;;5.47;3.13;;;;;;;24.74;65.36;92291.97;5014332;28;20054;-74
2023/08/29 06:37:45;;;;;;;6.25;3.22;;;;;;;24.88;65.11;92291.75;5011360;28;20050;-74
2023/08/29 06:40:12;;;;;;;4.88;3.30;;;;;;;25.06;64.30;92287.13;5012509;28;20050;-74
2023/08/29 06:42:39;;;;;;;5.90;3.08;;;;;;;25.22;63.36;92282.78;5012711;28;21150;-74
2023/08/29 06:45:08;;;;;;;7.20;3.50;;;;;;;25.33;63.36;92277.88;5011571;28;20508;-74
2023/08/29 06:47:34;;;;;;;8.70;3.80;;;;;;;25.35;61.79;92256.53;5011942;28;20114;-74
2023/08/29 06:50:01;;;;;;;9.63;4.10;;;;;;;25.55;62.48;92262.81;5014659;28;20053;-74
2023/08/29 06:52:28;;;;;;;10.57;3.95;;;;;;;25.77;62.15;92278.53;5017520;28;20132;-74
2023/08/29 06:54:56;;;;;;;8.68;4.20;;;;;;;25.80;61.71;92265.50;5016595;28;20404;-74
2023/08/29 06:57:23;;;;;;;11.15;3.70;;;;;;;26.08;60.82;92288.50;5013928;28;20046;-75
2023/08/29 06:59:50;;;;;;;9.88;4.07;;;;;;;26.22;59.60;92285.53;5014171;28;20100;-73
2023/08/29 07:02:17;;;;;;;8.63;3.80;;;;;;;26.44;60.11;92298.59;5013671;28;20042;-74
2023/08/29 07:04:43;;;;;;;9.52;3.88;;;;;;;26.67;59.23;92301.50;5016729;28;20057;-74
2023/08/29 07:07:10;;;;;;;6.63;3.65;;;;;;;26.87;57.43;92307.72;5014037;28;20045;-74
2023/08/29 07:09:37;;;;;;;10.35;3.55;;;;;;;27.00;56.66;92307.69;5014920;28;21002;-76
2023/08/29 07:12:05;;;;;;;5.78;3.47;;;;;;;27.03;56.52;92314.94;5018210;28;20049;-75
2023/08/29 07:14:32;;;;;;;9.98;3.60;;;;;;;27.11;56.07;92321.91;5012992;28;20053;-75
2023/08/29 07:16:59;;;;;;;11.02;5.35;;;;;;;27.28;55.73;92317.47;5019427;28;20466;-75
2023/08/29 07:19:28;;;;;;;5.47;3.50;;;;;;;27.30;55.34;92310.75;5022128;28;20037;-75
2023/08/29 07:21:55;;;;;;;5.85;3.35;;;;;;;27.49;54.65;92325.16;5013853;28;20134;-74
2023/08/29 07:24:22;;;;;;;7.57;2.90;;;;;;;27.60;55.25;92315.66;5014546;28;20053;-75
2023/08/29 07:26:49;;;;;;;6.28;3.70;;;;;;;27.79;54.31;92321.38;5011359;28;20056;-75
2023/08/29 07:29:17;;;;;;;5.72;3.20;;;;;;;27.87;54.03;92321.22;5011162;28;20054;-75
2023/08/29 07:31:43;;;;;;;9.15;3.20;;;;;;;27.95;53.50;92327.44;5013414;28;20041;-74
2023/08/29 07:34:11;;;;;;;23.20;4.57;;;;;;;28.03;52.56;92315.16;5016461;28;20100;-74
2023/08/29 07:36:38;;;;;;;8.38;3.83;;;;;;;28.01;52.35;92312.88;5015363;28;20046;-78
2023/08/29 07:39:05;;;;;;;9.40;4.20;;;;;;;28.11;52.60;92314.25;5016729;28;20042;-75
2023/08/29 07:41:32;;;;;;;8.35;3.88;;;;;;;28.22;52.54;92306.56;5016300;28;20045;-75
2023/08/29 07:43:58;;;;;;;6.13;3.67;;;;;;;28.40;51.72;92312.25;5012939;28;20049;-77
2023/08/29 07:46:27;;;;;;;7.68;3.67;;;;;;;28.39;51.36;92315.25;5010274;28;20049;-75
2023/08/29 07:48:53;;;;;;;6.65;3.90;;;;;;;28.53;51.60;92312.13;5011100;28;20049;-75
2023/08/29 07:51:20;;;;;;;6.35;3.80;;;;;;;28.56;51.43;92324.66;5013713;28;20474;-75
2023/08/29 07:53:47;;;;;;;10.38;4.93;;;;;;;28.65;51.41;92327.13;5013800;28;20508;-75
2023/08/29 07:56:13;;;;;;;7.22;3.45;;;;;;;28.72;50.91;92323.84;5011919;28;20053;-75
2023/08/29 07:58:40;;;;;;;5.53;3.40;;;;;;;28.82;50.61;92318.00;5011144;28;20041;-75
2023/08/29 08:01:07;;;;;;;9.68;3.40;;;;;;;29.05;51.05;92325.28;5015020;28;20442;-75
2023/08/29 08:03:35;;;;;;;6.57;3.92;;;;;;;29.16;49.51;92312.28;5010781;28;20099;-74
2023/08/29 08:06:02;;;;;;;8.23;3.72;;;;;;;29.25;49.32;92312.06;5013296;28;20620;-75
2023/08/29 08:08:28;;;;;;;9.50;3.63;;;;;;;29.34;49.73;92313.38;5009308;28;20096;-75
2023/08/29 08:10:55;;;;;;;8.90;3.97;;;;;;;29.46;49.42;92314.31;5010914;28;20461;-74
2023/08/29 08:13:22;;;;;;;13.23;4.28;;;;;;;29.68;49.08;92312.06;5012108;28;20443;-74
2023/08/29 08:15:49;;;;;;;7.65;4.00;;;;;;;29.85;48.42;92308.94;5010841;28;20129;-76
2023/08/29 08:18:16;;;;;;;5.85;3.63;;;;;;;29.79;48.16;92306.94;5012315;28;20920;-75
2023/08/29 08:20:44;;;;;;;7.25;4.10;;;;;;;29.96;48.06;92303.84;5010654;28;20041;-75
2023/08/29 08:23:10;;;;;;;5.97;3.90;;;;;;;30.09;47.32;92301.78;5010811;28;20515;-75
2023/08/29 08:25:37;;;;;;;8.68;3.67;;;;;;;30.17;46.53;92296.59;5010509;28;20050;-75
2023/08/29 08:28:05;;;;;;;7.28;4.10;;;;;;;30.21;46.28;92297.41;5009359;28;20054;-75
2023/08/29 08:30:32;;;;;;;10.05;4.93;;;;;;;30.39;46.63;92295.00;5010442;28;20050;-75
2023/08/29 08:32:59;;;;;;;8.65;4.35;;;;;;;30.59;45.97;92295.66;5012987;28;20045;-76
2023/08/29 08:35:26;;;;;;;5.75;3.25;;;;;;;30.68;44.96;92284.78;5009061;28;20049;-76
2023/08/29 08:37:54;;;;;;;8.27;3.40;;;;;;;30.78;44.63;92288.75;5011019;28;20049;-76
2023/08/29 08:40:21;;;;;;;5.47;3.38;;;;;;;30.78;44.17;92288.75;5010562;28;20092;-75
2023/08/29 08:42:48;;;;;;;9.52;3.97;;;;;;;30.90;44.16;92285.06;5010283;28;20088;-75
2023/08/29 08:45:15;;;;;;;6.68;3.92;;;;;;;30.84;44.28;92295.25;5012351;28;20212;-75
2023/08/29 08:47:42;;;;;;;8.35;3.25;;;;;;;30.93;44.22;92287.00;5009749;28;20099;-75
2023/08/29 08:50:10;;;;;;;7.00;3.67;;;;;;;30.84;43.19;92289.16;5010497;28;20053;-75
2023/08/29 08:52:38;;;;;;;5.25;3.00;;;;;;;30.49;42.26;92280.38;5013543;28;20050;-76
2023/08/29 08:55:08;;;;;;;6.22;2.83;;;;;;;30.30;42.27;92276.72;5020075;28;20054;-75
2023/08/29 08:57:35;;;;;;;9.05;4.00;;;;;;;29.95;42.74;92275.06;5010364;28;20111;-76
2023/08/29 09:00:02;;;;;;;6.63;3.42;;;;;;;29.73;43.48;92282.66;5011740;28;20830;-75
2023/08/29 09:02:31;;;;;;;8.88;3.53;;;;;;;29.75;43.68;92288.38;5014115;28;20078;-75
2023/08/29 09:04:57;;;;;;;13.32;3.80;;;;;;;29.66;44.17;92285.22;5017174;28;20057;-75
2023/08/29 09:07:24;;;;;;;7.03;3.03;;;;;;;29.32;44.42;92277.81;5010685;28;20132;-75
2023/08/29 09:10:09;;;;;;;8.88;3.38;;;;;;;29.24;44.49;92278.81;5010733;28;20126;-75
2023/08/29 09:12:36;;;;;;;7.15;3.40;;;;;;;29.22;43.86;92271.22;5010152;28;20059;-75
2023/08/29 09:15:05;;;;;;;6.95;3.60;;;;;;;29.19;44.51;92272.69;5008323;28;20088;-75
2023/08/29 09:17:32;;;;;;;8.75;3.40;;;;;;;29.18;44.90;92273.78;5013666;28;20121;-76
2023/08/29 09:19:59;;;;;;;8.52;3.83;;;;;;;28.90;44.29;92274.78;5013613;28;20050;-76
2023/08/29 09:22:26;;;;;;;5.28;2.85;;;;;;;28.74;45.19;92271.44;5011827;28;20043;-75
2023/08/29 09:24:53;;;;;;;5.97;3.33;;;;;;;28.73;44.87;92272.53;5010538;28;20570;-75
2023/08/29 09:27:21;;;;;;;9.38;3.50;;;;;;;28.75;45.03;92271.09;5011270;28;20464;-75
2023/08/29 09:29:48;;;;;;;9.23;3.50;;;;;;;28.61;45.06;92278.72;5014110;28;20542;-74
2023/08/29 09:32:15;;;;;;;5.88;2.60;;;;;;;28.72;45.26;92260.41;5009211;28;20049;-74
2023/08/29 09:34:42;;;;;;;5.38;2.85;;;;;;;28.73;45.01;92264.63;5011232;28;22244;-75
2023/08/29 09:37:11;;;;;;;6.97;3.17;;;;;;;28.73;45.74;92259.34;5008356;28;20049;-75
2023/08/29 09:39:38;;;;;;;9.55;2.90;;;;;;;28.88;45.32;92269.06;5013133;28;20045;-75
2023/08/29 09:42:07;;;;;;;5.05;2.85;;;;;;;28.88;45.62;92255.84;5010832;28;20099;-74
2023/08/29 09:44:38;;;;;;;4.90;3.08;;;;;;;29.01;45.20;92264.41;5010491;28;20045;-76
2023/08/29 09:47:05;;;;;;;9.32;3.35;;;;;;;28.92;45.24;92250.63;5009855;28;20500;-75
2023/08/29 09:49:41;;;;;;;8.65;3.50;;;;;;;29.00;45.60;92262.09;5007982;28;20085;-74
2023/08/29 09:52:09;;;;;;;8.35;3.22;;;;;;;28.81;45.58;92240.63;5008391;28;20550;-76
2023/08/29 09:54:38;;;;;;;6.93;3.47;;;;;;;28.93;45.33;92258.22;5017169;28;20753;-74
2023/08/29 09:57:08;;;;;;;5.03;2.80;;;;;;;28.92;45.64;92251.41;5010972;28;20099;-75
2023/08/29 09:59:40;;;;;;;5.95;3.20;;;;;;;28.93;44.60;92244.25;5008414;28;20050;-75
2023/08/29 10:02:09;;;;;;;8.73;3.45;;;;;;;28.97;45.48;92252.25;5018725;28;20108;-75
2023/08/29 10:04:38;;;;;;;7.60;3.15;;;;;;;28.96;45.29;92238.25;5018702;28;20060;-76
2023/08/29 10:07:07;;;;;;;7.68;2.97;;;;;;;28.78;45.17;92214.09;5018120;28;20046;-75
2023/08/29 10:09:34;;;;;;;10.02;3.03;;;;;;;29.05;44.90;92238.03;5014281;28;20057;-75
2023/08/29 10:12:03;;;;;;;5.00;2.78;;;;;;;29.02;44.68;92242.13;5014912;28;20049;-75
2023/08/29 10:14:32;;;;;;;6.82;2.90;;;;;;;29.08;44.05;92240.75;5012145;28;20053;-75
2023/08/29 10:17:02;;;;;;;7.25;2.80;;;;;;;29.24;44.03;92231.19;5015803;28;20053;-75
2023/08/29 10:19:32;;;;;;;6.15;3.83;;;;;;;29.28;44.02;92222.19;5011628;28;20050;-75
2023/08/29 10:22:00;;;;;;;5.78;3.00;;;;;;;29.37;43.96;92219.31;5013482;28;20050;-75
2023/08/29 10:24:28;;;;;;;11.77;3.25;;;;;;;29.40;43.81;92220.50;5010603;28;20569;-75
2023/08/29 10:26:55;;;;;;;6.18;3.08;;;;;;;29.57;44.18;92216.66;5019368;28;20049;-75
2023/08/29 10:29:22;;;;;;;10.88;3.08;;;;;;;29.60;43.43;92215.94;5015563;28;20056;-76
2023/08/29 10:31:49;;;;;;;7.88;4.50;;;;;;;29.57;43.81;92217.41;5017334;28;20050;-75
2023/08/29 10:34:19;;;;;;;9.38;3.60;;;;;;;29.56;43.58;92202.66;5020000;28;20061;-76
2023/08/29 10:36:46;;;;;;;7.72;3.38;;;;;;;29.66;43.92;92216.41;5019209;28;20052;-75
2023/08/29 10:39:15;;;;;;;8.90;3.30;;;;;;;29.76;43.54;92212.38;5012444;28;20049;-76
2023/08/29 10:41:46;;;;;;;5.50;2.90;;;;;;;29.73;43.04;92209.34;5018399;28;20116;-76
2023/08/29 10:44:35;;;;;;;6.53;2.63;;;;;;;29.81;42.63;92204.16;5012955;28;20129;-75
2023/08/29 10:47:16;;;;;;;6.43;3.35;;;;;;;29.83;41.91;92207.97;5011359;28;20325;-74
2023/08/29 10:49:44;;;;;;;11.77;3.35;;;;;;;29.82;42.37;92193.22;5011874;28;20050;-74
2023/08/29 10:52:13;;;;;;;6.32;3.20;;;;;;;29.95;42.26;92191.09;5011551;28;20045;-75
2023/08/29 10:54:40;;;;;;;9.35;3.30;;;;;;;29.90;41.78;92198.59;5011908;28;20108;-75
2023/08/29 10:57:28;;;;;;;7.20;2.40;;;;;;;29.89;41.07;92197.81;5012403;28;20129;-75
2023/08/29 10:59:55;;;;;;;3.75;2.47;;;;;;;29.85;41.23;92208.38;5025561;28;20049;-75
2023/08/29 11:02:22;;;;;;;6.30;3.08;;;;;;;29.89;41.59;92207.66;5011132;28;20086;-75
2023/08/29 11:04:52;;;;;;;8.70;2.70;;;;;;;29.85;41.78;92197.03;5021375;28;20050;-74
2023/08/29 11:07:25;;;;;;;9.80;3.72;;;;;;;29.95;40.61;92206.25;5010974;28;20419;-75
2023/08/29 11:10:16;;;;;;;5.63;3.15;;;;;;;29.94;40.42;92197.53;5011165;28;20099;-74
2023/08/29 11:13:06;;;;;;;7.22;3.00;;;;;;;30.00;41.01;92205.94;5013512;28;20414;-74
2023/08/29 11:16:07;;;;;;;5.72;2.95;;;;;;;29.90;41.09;92202.03;5010542;28;20102;-74
2023/08/29 11:18:35;;;;;;;5.93;2.50;;;;;;;29.78;41.44;92208.28;5014945;28;20045;-75
2023/08/29 11:21:08;;;;;;;5.97;3.33;;;;;;;29.81;41.56;92202.25;5012524;28;20053;-74
2023/08/29 11:23:38;;;;;;;7.35;2.85;;;;;;;29.88;42.08;92193.66;5013093;28;20109;-75
2023/08/29 11:26:05;;;;;;;7.25;3.03;;;;;;;29.99;42.05;92188.53;5014860;28;20553;-74
2023/08/29 11:28:34;;;;;;;11.27;3.70;;;;;;;30.08;42.40;92183.72;5013080;28;20466;-75
2023/08/29 11:31:01;;;;;;;5.72;3.35;;;;;;;30.18;42.73;92187.66;5011759;28;20060;-74
2023/08/29 11:33:33;;;;;;;8.27;3.78;;;;;;;30.42;41.94;92179.63;5011395;28;20503;-74
2023/08/29 11:36:00;;;;;;;6.13;2.92;;;;;;;30.57;41.79;92177.88;5016386;28;20116;-75